LPHRLPPD

Guest
Details From LPHR - HORTA
To LPPD - PONTA DELGADA
Flight Number -
Tags generated
Created
Modified
Stats Distance 150 nm / 278 km
Max Altitude 17,500 ft / 5,334 m
Waypoints 3
Social Downloads 7
Likes 0
Share VATSIM

Download

Looking for another format? Having issues loading an existing format? Contact us
Advertisement - Login to hide

Notes

Basic altitude profile: - Ascent Rate: 6000ft/min - Ascent Speed: 250kts - Cruise Altitude: 16000ft - Cruise Speed: 420kts - Descent Rate: 1500ft/min - Descent Speed: 250kts Options: - Use NATs: yes - Use PACOTS: yes - Use low airways: no - Use high airways: yes

Route

LPHR SOMUL LPPD

ID Type Via Altitude Latitude Longitude Leg Dist Tot Dist Heading (true) Name
O LPHR APT - 0 ft / 0 m 38.51990˚ -28.71579˚ - 0 nm - HORTA
SOMUL FIX - 17,500 ft / 5,334 m 38.22250˚ -27.31694˚ 68 nm 68 nm 105° / 106° -
O LPPD APT - 0 ft / 0 m 37.74208˚ -25.69774˚ 81 nm 150 nm 110° / 111° PONTA DELGADA

Altitude Profile

Advertisement - Login to hide

LPHR

Details ICAO LPHR (HOR)
Name HORTA
Region Portugal
Timezone Atlantic/Azores (UTC-1.0)
Stats Elevation 118 ft / 36 m (AMSL)
Location 38.519898° -28.715795°
Runways 1
Magnetic Variation 9.510° W

METAR

LPHR 141900Z 26012KT 9999 SCT012 18/16 Q1031

Decode

TAF

Not found

Departure Runways

ID Width Length Bearing (true) Bearing (mag) Surface Threshold Offset Overrun Length
10 148 ft / 45 m 4,990 ft / 1,521 m 89.70° 99.21° Asphalt 0 ft / 0 m 180 ft / 55 m
28 148 ft / 45 m 4,990 ft / 1,521 m 269.71° 279.22° Asphalt 0 ft / 0 m 180 ft / 55 m

LPPD

Details ICAO LPPD (PDL)
Name PONTA DELGADA
Region Portugal
Timezone Atlantic/Azores (UTC-1.0)
Stats Elevation 259 ft / 79 m (AMSL)
Location 37.742078° -25.697736°
Runways 1
Magnetic Variation 8.362° W

METAR

LPPD 141900Z 30008KT 270V330 9999 VCSH SCT014 BKN030 18/16 Q1031

Decode

TAF

TAF LPPD 141700Z 1418/1518 29010KT 9999 SCT015 TEMPO 1418/1518 SCT012 BKN030 PROB30 TEMPO 1418/1518 BKN012

Decode

Destination Runways

ID Width Length Bearing (true) Bearing (mag) Surface Threshold Offset Overrun Length
12 148 ft / 45 m 8,179 ft / 2,493 m 111.77° 120.13° Asphalt 0 ft / 0 m 375 ft / 114 m
30 148 ft / 45 m 8,179 ft / 2,493 m 291.79° 300.15° Asphalt 787 ft / 240 m 0 ft / 0 m

Approach Navaids

Runway Type Ident Frequency Range Bearing (true) Bearing (mag) Slope Elevation
30 Localiser NL 109.50 MHz 18 nm / 33 km 291.78° 300.14° - 259 ft / 79 m (AMSL)
30 Glidescope NL 109.50 MHz 10 nm / 19 km 291.78° 300.14° 3.00° 259 ft / 79 m (AMSL)
30 DME NL 109.50 MHz 18 nm / 33 km - - - 259 ft / 79 m (AMSL)

Popular Alternatives